EKHS weather

CLOSED Hadsund Airfield
Hadsund, North Jutland, Denmark

Public forecast

Using degrees Celsius for public forecast. Weather courtesy of forecast.io.

Closest aviation weather report (METAR) to Hadsund Airfield

Closest report is Aalborg Airport, 23.7 nm (44.0 km) NNW. Retrieved 2020/01/21 13:33 UTC (0 seconds ago):

EKYT 211333Z AUTO 26018G29KT 9999 NCD 08/05 Q1028

Closest aviation forecast (TAF) to Hadsund Airfield

Closest forecast is Aalborg Airport, 23.7 nm (44.0 km) NNW. Retrieved 2020/01/21 15:12 UTC (0 seconds ago):

TAF EKYT 211406Z 2115/2215 28020KT 9999 SCT200 TEMPO 2115/2204 29022G32KT BECMG 2206/2209 32012KT